LFLS METAR and TAF | Updated Today

LFLS METAR

Grenoble-Isère Airport

Observation time: 10 min. ago

LFLS 291200Z AUTO 33011KT 300V020 9999 FEW058 19/04 Q1010 NOSIG

Need help? Read our tutorial on how to read METARs or read the parsed version below.

Grenoble-Isère Airport (LFLS) METAR

  • Weather conditions on Sun, 29 May 2022 12:00:00 +0000 (10 min. ago):
  • Present conditions: Dry
  • Clouds: A few at 1768 meters
  • Visibility: Greater than 10 km
  • Wind: 330 degrees at 11 knots
  • Temperature: 19 celsius
  • Dew point: 4 celsius
  • Pressure: 1010 millibars
  • Remarks: None


Useful to know...

LFLS TAF

Grenoble-Isère Airport

TAF LFLS 290800Z 2909/3009 34012KT 9999 FEW050 BECMG 2918/2920 VRB02KT CAVOK
Observation time: 4:10 hr. ago
Need help? Read our tutorial on how to read TAFs or read the parsed version below.

Parsed version of TAF for Grenoble-Isère Airport (LFLS)

  • From 29 May at 09:00 UTC, to day 30 of the month at 09:00 UTC
  • Clouds: A few at 1524 meters
  • Visibility: Greater than 10 km
  • Wind: 340 degrees at 12
  • Expected to arise soon, from 29 May at 18:00 UTC, to day 29 of the month at 20:00 UTC
  • Visibility: Greater than 10 km
  • Wind: Variable at 2